Terminal Aerodrome Forecast
Issued by NWS

Home | Current Version | Previous Version | Text Only | Print | Product List | Glossary On
Versions: 1 2 3 4 5 6 7 8 9 10 11 12 13 14 15 16 17 18 19 20 21 22 23 24 25
000
FTUS45 KLKN 170500
TAFEKO
TAF
KEKO 170520Z 1706/1806 VRB06KT P6SM FEW100
     FM172000 22008G18KT P6SM VCTS SCT100CB BKN200
     FM180200 VRB06KT P6SM VCTS SCT100CB BKN200=

USA.gov is the U.S. government's official web portal to all federal, state and local government web resources and services.